sensor_id;sensor_type;location;lat;lon;timestamp;pressure;altitude;pressure_sealevel;temperature;humidity
12247;BME280;6186;52.022;4.692;2023-04-19T00:02:14;102872.88;;;10.31;83.49
12247;BME280;6186;52.022;4.692;2023-04-19T00:04:39;102866.75;;;10.31;83.75
12247;BME280;6186;52.022;4.692;2023-04-19T00:07:04;102872.03;;;10.29;83.84
12247;BME280;6186;52.022;4.692;2023-04-19T00:09:29;102874.66;;;10.31;83.79
12247;BME280;6186;52.022;4.692;2023-04-19T00:11:55;102866.75;;;10.32;84.14
12247;BME280;6186;52.022;4.692;2023-04-19T00:14:20;102860.63;;;10.33;84.08
12247;BME280;6186;52.022;4.692;2023-04-19T00:16:45;102857.97;;;10.33;84.33
12247;BME280;6186;52.022;4.692;2023-04-19T00:19:10;102857.13;;;10.36;84.56
12247;BME280;6186;52.022;4.692;2023-04-19T00:21:36;102862.41;;;10.36;84.43
12247;BME280;6186;52.022;4.692;2023-04-19T00:24:01;102858.03;;;10.36;84.37
12247;BME280;6186;52.022;4.692;2023-04-19T00:26:26;102862.41;;;10.36;84.56
12247;BME280;6186;52.022;4.692;2023-04-19T00:28:52;102858.91;;;10.37;84.45
12247;BME280;6186;52.022;4.692;2023-04-19T00:31:17;102859.75;;;10.36;84.72
12247;BME280;6186;52.022;4.692;2023-04-19T00:33:42;102858.91;;;10.37;84.52
12247;BME280;6186;52.022;4.692;2023-04-19T00:36:07;102867.66;;;10.36;84.58
12247;BME280;6186;52.022;4.692;2023-04-19T00:38:33;102854.50;;;10.36;85.06
12247;BME280;6186;52.022;4.692;2023-04-19T00:40:58;102849.28;;;10.40;85.05
12247;BME280;6186;52.022;4.692;2023-04-19T00:43:23;102855.47;;;10.46;85.58
12247;BME280;6186;52.022;4.692;2023-04-19T00:45:48;102852.84;;;10.49;85.55
12247;BME280;6186;52.022;4.692;2023-04-19T00:48:14;102842.28;;;10.47;85.64
12247;BME280;6186;52.022;4.692;2023-04-19T00:50:41;102837.03;;;10.49;85.92
12247;BME280;6186;52.022;4.692;2023-04-19T00:53:07;102833.50;;;10.47;85.95
12247;BME280;6186;52.022;4.692;2023-04-19T00:55:32;102849.41;;;10.56;86.24
12247;BME280;6186;52.022;4.692;2023-04-19T00:57:58;102837.06;;;10.53;86.17
12247;BME280;6186;52.022;4.692;2023-04-19T01:00:23;102849.44;;;10.63;86.64
12247;BME280;6186;52.022;4.692;2023-04-19T01:02:48;102835.44;;;10.67;86.61
12247;BME280;6186;52.022;4.692;2023-04-19T01:05:14;102823.13;;;10.65;87.15
12247;BME280;6186;52.022;4.692;2023-04-19T01:07:39;102838.13;;;10.76;87.04
12247;BME280;6186;52.022;4.692;2023-04-19T01:10:05;102832.84;;;10.79;87.37
12247;BME280;6186;52.022;4.692;2023-04-19T01:12:30;102836.38;;;10.81;87.48
12247;BME280;6186;52.022;4.692;2023-04-19T01:14:55;102831.16;;;10.84;87.32
12247;BME280;6186;52.022;4.692;2023-04-19T01:17:21;102826.72;;;10.86;87.46
12247;BME280;6186;52.022;4.692;2023-04-19T01:19:46;102829.41;;;10.89;87.50
12247;BME280;6186;52.022;4.692;2023-04-19T01:22:29;102819.72;;;10.84;87.53
12247;BME280;6186;52.022;4.692;2023-04-19T01:24:55;102832.94;;;10.93;87.84
12247;BME280;6186;52.022;4.692;2023-04-19T01:27:20;102819.75;;;10.93;88.06
12247;BME280;6186;52.022;4.692;2023-04-19T01:29:45;102826.78;;;10.91;87.93
12247;BME280;6186;52.022;4.692;2023-04-19T01:32:11;102823.25;;;10.87;87.93
12247;BME280;6186;52.022;4.692;2023-04-19T01:34:36;102833.75;;;10.83;87.54
12247;BME280;6186;52.022;4.692;2023-04-19T01:37:01;102826.69;;;10.77;87.34
12247;BME280;6186;52.022;4.692;2023-04-19T01:39:26;102831.00;;;10.65;86.94
12247;BME280;6186;52.022;4.692;2023-04-19T01:41:52;102837.97;;;10.58;86.60
12247;BME280;6186;52.022;4.692;2023-04-19T01:44:17;102830.03;;;10.49;86.76
12247;BME280;6186;52.022;4.692;2023-04-19T01:46:42;102830.84;;;10.40;86.50
12247;BME280;6186;52.022;4.692;2023-04-19T01:49:08;102830.81;;;10.33;86.53
12247;BME280;6186;52.022;4.692;2023-04-19T01:51:33;102829.84;;;10.26;86.42
12247;BME280;6186;52.022;4.692;2023-04-19T01:53:58;102835.94;;;10.21;86.16
12247;BME280;6186;52.022;4.692;2023-04-19T01:56:23;102832.41;;;10.16;86.38
12247;BME280;6186;52.022;4.692;2023-04-19T01:58:49;102829.72;;;10.10;86.25
12247;BME280;6186;52.022;4.692;2023-04-19T02:01:14;102834.03;;;10.05;86.25
12247;BME280;6186;52.022;4.692;2023-04-19T02:03:39;102824.34;;;10.01;86.50
12247;BME280;6186;52.022;4.692;2023-04-19T02:06:05;102838.34;;;9.97;86.38
12247;BME280;6186;52.022;4.692;2023-04-19T02:08:30;102834.78;;;9.92;86.45
12247;BME280;6186;52.022;4.692;2023-04-19T02:10:55;102813.66;;;9.83;86.88
12247;BME280;6186;52.022;4.692;2023-04-19T02:13:20;102818.06;;;9.85;86.75
12247;BME280;6186;52.022;4.692;2023-04-19T02:15:46;102822.44;;;9.85;87.04
12247;BME280;6186;52.022;4.692;2023-04-19T02:18:11;102815.44;;;9.84;87.21
12247;BME280;6186;52.022;4.692;2023-04-19T02:20:36;102822.44;;;9.85;87.35
12247;BME280;6186;52.022;4.692;2023-04-19T02:23:01;102816.31;;;9.86;87.75
12247;BME280;6186;52.022;4.692;2023-04-19T02:25:27;102819.84;;;9.88;87.81
12247;BME280;6186;52.022;4.692;2023-04-19T02:27:52;102825.13;;;9.91;88.24
12247;BME280;6186;52.022;4.692;2023-04-19T02:30:17;102830.41;;;9.94;88.47
12247;BME280;6186;52.022;4.692;2023-04-19T02:32:42;102822.56;;;9.97;88.50
12247;BME280;6186;52.022;4.692;2023-04-19T02:35:08;102831.34;;;10.00;88.73
12247;BME280;6186;52.022;4.692;2023-04-19T02:37:33;102833.16;;;10.03;89.03
12247;BME280;6186;52.022;4.692;2023-04-19T02:39:58;102816.41;;;9.98;89.13
12247;BME280;6186;52.022;4.692;2023-04-19T02:42:23;102822.63;;;10.06;89.07
12247;BME280;6186;52.022;4.692;2023-04-19T02:44:49;102834.91;;;10.07;89.23
12247;BME280;6186;52.022;4.692;2023-04-19T02:47:14;102838.44;;;10.07;89.52
12247;BME280;6186;52.022;4.692;2023-04-19T02:49:39;102832.28;;;10.07;89.47
12247;BME280;6186;52.022;4.692;2023-04-19T02:52:04;102835.81;;;10.09;89.62
12247;BME280;6186;52.022;4.692;2023-04-19T02:54:29;102838.50;;;10.10;89.56
12247;BME280;6186;52.022;4.692;2023-04-19T02:56:55;102842.03;;;10.12;89.86
12247;BME280;6186;52.022;4.692;2023-04-19T02:59:20;102838.53;;;10.12;89.90
12247;BME280;6186;52.022;4.692;2023-04-19T03:01:45;102839.38;;;10.11;89.84
12247;BME280;6186;52.022;4.692;2023-04-19T03:04:10;102837.63;;;10.10;89.90
12247;BME280;6186;52.022;4.692;2023-04-19T03:06:35;102844.63;;;10.09;90.05
12247;BME280;6186;52.022;4.692;2023-04-19T03:09:01;102832.31;;;10.08;90.35
12247;BME280;6186;52.022;4.692;2023-04-19T03:11:26;102832.34;;;10.10;90.12
12247;BME280;6186;52.022;4.692;2023-04-19T03:13:51;102842.00;;;10.11;90.61
12247;BME280;6186;52.022;4.692;2023-04-19T03:16:17;102840.25;;;10.11;90.69
12247;BME280;6186;52.022;4.692;2023-04-19T03:18:43;102839.41;;;10.12;90.55
12247;BME280;6186;52.022;4.692;2023-04-19T03:21:08;102832.38;;;10.13;90.83
12247;BME280;6186;52.022;4.692;2023-04-19T03:23:33;102825.38;;;10.13;91.00
12247;BME280;6186;52.022;4.692;2023-04-19T03:25:58;102826.25;;;10.14;91.10
12247;BME280;6186;52.022;4.692;2023-04-19T03:28:24;102828.00;;;10.15;91.22
12247;BME280;6186;52.022;4.692;2023-04-19T03:30:49;102826.25;;;10.15;91.24
12247;BME280;6186;52.022;4.692;2023-04-19T03:33:14;102826.25;;;10.14;91.22
12247;BME280;6186;52.022;4.692;2023-04-19T03:35:39;102821.00;;;10.17;91.34
12247;BME280;6186;52.022;4.692;2023-04-19T03:38:04;102815.75;;;10.18;91.45
12247;BME280;6186;52.022;4.692;2023-04-19T03:40:32;102813.97;;;10.14;91.70
12247;BME280;6186;52.022;4.692;2023-04-19T03:42:57;102814.00;;;10.19;91.75
12247;BME280;6186;52.022;4.692;2023-04-19T03:45:23;102814.91;;;10.21;92.07
12247;BME280;6186;52.022;4.692;2023-04-19T03:47:48;102816.69;;;10.23;92.11
12247;BME280;6186;52.022;4.692;2023-04-19T03:50:13;102807.00;;;10.19;92.36
12247;BME280;6186;52.022;4.692;2023-04-19T03:52:38;102815.84;;;10.27;92.29
12247;BME280;6186;52.022;4.692;2023-04-19T03:55:04;102809.69;;;10.30;92.53
12247;BME280;6186;52.022;4.692;2023-04-19T03:57:29;102812.38;;;10.33;92.73
12247;BME280;6186;52.022;4.692;2023-04-19T03:59:54;102808.00;;;10.35;92.69
12247;BME280;6186;52.022;4.692;2023-04-19T04:02:19;102813.28;;;10.38;92.82
12247;BME280;6186;52.022;4.692;2023-04-19T04:04:45;102813.28;;;10.39;92.89
12247;BME280;6186;52.022;4.692;2023-04-19T04:07:10;102813.28;;;10.41;93.05
12247;BME280;6186;52.022;4.692;2023-04-19T04:09:35;102816.81;;;10.43;93.05
12247;BME280;6186;52.022;4.692;2023-04-19T04:12:00;102805.38;;;10.38;92.95
12247;BME280;6186;52.022;4.692;2023-04-19T04:14:26;102798.31;;;10.35;93.01
12247;BME280;6186;52.022;4.692;2023-04-19T04:16:51;102811.53;;;10.40;93.18
12247;BME280;6186;52.022;4.692;2023-04-19T04:19:16;102815.91;;;10.35;93.49
12247;BME280;6186;52.022;4.692;2023-04-19T04:21:42;102818.56;;;10.41;93.36
12247;BME280;6186;52.022;4.692;2023-04-19T04:24:07;102827.34;;;10.41;93.52
12247;BME280;6186;52.022;4.692;2023-04-19T04:26:32;102816.78;;;10.37;93.49
12247;BME280;6186;52.022;4.692;2023-04-19T04:28:57;102823.81;;;10.39;93.56
12247;BME280;6186;52.022;4.692;2023-04-19T04:31:23;102829.09;;;10.41;93.89
12247;BME280;6186;52.022;4.692;2023-04-19T04:33:48;102828.22;;;10.42;94.11
12247;BME280;6186;52.022;4.692;2023-04-19T04:36:13;102827.34;;;10.43;94.02
12247;BME280;6186;52.022;4.692;2023-04-19T04:38:38;102832.59;;;10.43;94.38
12247;BME280;6186;52.022;4.692;2023-04-19T04:41:04;102821.22;;;10.44;94.15
12247;BME280;6186;52.022;4.692;2023-04-19T04:43:29;102828.25;;;10.47;94.34
12247;BME280;6186;52.022;4.692;2023-04-19T04:45:54;102823.88;;;10.47;94.41
12247;BME280;6186;52.022;4.692;2023-04-19T04:48:20;102829.16;;;10.50;94.83
12247;BME280;6186;52.022;4.692;2023-04-19T04:50:45;102830.06;;;10.52;94.98
12247;BME280;6186;52.022;4.692;2023-04-19T04:53:10;102832.69;;;10.52;94.90
12247;BME280;6186;52.022;4.692;2023-04-19T04:55:35;102830.06;;;10.54;94.70
12247;BME280;6186;52.022;4.692;2023-04-19T04:58:00;102829.19;;;10.53;95.02
12247;BME280;6186;52.022;4.692;2023-04-19T05:00:26;102833.56;;;10.54;95.13
12247;BME280;6186;52.022;4.692;2023-04-19T05:02:51;102837.06;;;10.52;94.71
12247;BME280;6186;52.022;4.692;2023-04-19T05:05:16;102837.94;;;10.51;94.72
12247;BME280;6186;52.022;4.692;2023-04-19T05:07:41;102835.28;;;10.49;94.79
12247;BME280;6186;52.022;4.692;2023-04-19T05:10:07;102837.03;;;10.49;95.19
12247;BME280;6186;52.022;4.692;2023-04-19T05:12:33;102835.28;;;10.48;94.93
12247;BME280;6186;52.022;4.692;2023-04-19T05:14:58;102834.41;;;10.46;94.98
12247;BME280;6186;52.022;4.692;2023-04-19T05:17:23;102841.41;;;10.45;95.25
12247;BME280;6186;52.022;4.692;2023-04-19T05:19:49;102839.66;;;10.44;95.34
12247;BME280;6186;52.022;4.692;2023-04-19T05:22:14;102837.88;;;10.43;95.32
12247;BME280;6186;52.022;4.692;2023-04-19T05:24:39;102846.66;;;10.42;95.34
12247;BME280;6186;52.022;4.692;2023-04-19T05:27:04;102840.50;;;10.41;95.21
12247;BME280;6186;52.022;4.692;2023-04-19T05:29:30;102838.75;;;10.40;95.54
12247;BME280;6186;52.022;4.692;2023-04-19T05:31:56;102830.81;;;10.39;95.34
12247;BME280;6186;52.022;4.692;2023-04-19T05:34:21;102837.03;;;10.43;95.54
12247;BME280;6186;52.022;4.692;2023-04-19T05:36:47;102838.75;;;10.40;95.37
12247;BME280;6186;52.022;4.692;2023-04-19T05:39:12;102841.41;;;10.42;95.38
12247;BME280;6186;52.022;4.692;2023-04-19T05:41:37;102844.91;;;10.43;95.72
12247;BME280;6186;52.022;4.692;2023-04-19T05:44:02;102846.66;;;10.43;95.89
12247;BME280;6186;52.022;4.692;2023-04-19T05:46:27;102855.44;;;10.44;95.86
12247;BME280;6186;52.022;4.692;2023-04-19T05:48:53;102853.72;;;10.45;95.81
12247;BME280;6186;52.022;4.692;2023-04-19T05:51:18;102860.72;;;10.46;95.83
12247;BME280;6186;52.022;4.692;2023-04-19T05:53:44;102854.63;;;10.48;96.08
12247;BME280;6186;52.022;4.692;2023-04-19T05:56:09;102854.63;;;10.53;96.12
12247;BME280;6186;52.022;4.692;2023-04-19T05:58:34;102855.50;;;10.53;96.36
12247;BME280;6186;52.022;4.692;2023-04-19T06:01:00;102846.72;;;10.51;96.34
12247;BME280;6186;52.022;4.692;2023-04-19T06:03:26;102851.13;;;10.52;96.41
12247;BME280;6186;52.022;4.692;2023-04-19T06:05:51;102859.03;;;10.55;96.30
12247;BME280;6186;52.022;4.692;2023-04-19T06:08:16;102852.88;;;10.55;96.67
12247;BME280;6186;52.022;4.692;2023-04-19T06:10:41;102852.00;;;10.54;96.41
12247;BME280;6186;52.022;4.692;2023-04-19T06:13:06;102857.28;;;10.56;96.58
12247;BME280;6186;52.022;4.692;2023-04-19T06:15:32;102851.97;;;10.51;96.97
12247;BME280;6186;52.022;4.692;2023-04-19T06:17:57;102857.31;;;10.60;96.85
12247;BME280;6186;52.022;4.692;2023-04-19T06:20:22;102852.09;;;10.63;97.15
12247;BME280;6186;52.022;4.692;2023-04-19T06:22:47;102856.47;;;10.66;97.19
12247;BME280;6186;52.022;4.692;2023-04-19T06:25:13;102860.00;;;10.65;96.97
12247;BME280;6186;52.022;4.692;2023-04-19T06:27:38;102841.50;;;10.57;96.87
12247;BME280;6186;52.022;4.692;2023-04-19T06:30:03;102860.84;;;10.64;97.24
12247;BME280;6186;52.022;4.692;2023-04-19T06:32:29;102856.47;;;10.66;97.06
12247;BME280;6186;52.022;4.692;2023-04-19T06:34:54;102854.72;;;10.68;97.38
12247;BME280;6186;52.022;4.692;2023-04-19T06:37:19;102858.25;;;10.68;97.62
12247;BME280;6186;52.022;4.692;2023-04-19T06:39:44;102853.88;;;10.72;97.61
12247;BME280;6186;52.022;4.692;2023-04-19T06:42:10;102860.03;;;10.74;97.55
12247;BME280;6186;52.022;4.692;2023-04-19T06:44:35;102859.16;;;10.72;97.58
12247;BME280;6186;52.022;4.692;2023-04-19T06:47:00;102851.25;;;10.69;97.85
12247;BME280;6186;52.022;4.692;2023-04-19T06:49:25;102864.47;;;10.79;97.73
12247;BME280;6186;52.022;4.692;2023-04-19T06:51:51;102857.50;;;10.84;98.27
12247;BME280;6186;52.022;4.692;2023-04-19T06:54:16;102860.13;;;10.90;98.50
12247;BME280;6186;52.022;4.692;2023-04-19T06:56:44;102862.81;;;10.93;98.48
12247;BME280;6186;52.022;4.692;2023-04-19T06:59:10;102857.56;;;10.99;98.68
12247;BME280;6186;52.022;4.692;2023-04-19T07:01:36;102865.50;;;11.04;98.59
12247;BME280;6186;52.022;4.692;2023-04-19T07:04:01;102860.25;;;11.08;98.77
12247;BME280;6186;52.022;4.692;2023-04-19T07:06:27;102861.16;;;11.15;99.02
12247;BME280;6186;52.022;4.692;2023-04-19T07:08:52;102855.03;;;11.17;98.49
12247;BME280;6186;52.022;4.692;2023-04-19T07:11:17;102852.38;;;11.17;98.73
12247;BME280;6186;52.022;4.692;2023-04-19T07:13:42;102849.78;;;11.22;98.60
12247;BME280;6186;52.022;4.692;2023-04-19T07:16:08;102862.06;;;11.24;98.60
12247;BME280;6186;52.022;4.692;2023-04-19T07:18:33;102863.00;;;11.29;98.99
12247;BME280;6186;52.022;4.692;2023-04-19T07:20:58;102852.47;;;11.40;99.64
12247;BME280;6186;52.022;4.692;2023-04-19T07:23:23;102843.72;;;11.49;99.46
12247;BME280;6186;52.022;4.692;2023-04-19T07:25:48;102855.19;;;11.58;99.75
12247;BME280;6186;52.022;4.692;2023-04-19T07:28:14;102850.78;;;11.65;99.98
12247;BME280;6186;52.022;4.692;2023-04-19T07:30:39;102846.47;;;11.79;100.00
12247;BME280;6186;52.022;4.692;2023-04-19T07:33:04;102855.25;;;11.85;99.97
12247;BME280;6186;52.022;4.692;2023-04-19T07:35:29;102849.13;;;11.94;100.00
12247;BME280;6186;52.022;4.692;2023-04-19T07:37:55;102843.00;;;12.05;100.00
12247;BME280;6186;52.022;4.692;2023-04-19T07:40:20;102849.13;;;12.15;100.00
12247;BME280;6186;52.022;4.692;2023-04-19T07:42:45;102841.22;;;12.27;100.00
12247;BME280;6186;52.022;4.692;2023-04-19T07:45:10;102850.91;;;12.37;100.00
12247;BME280;6186;52.022;4.692;2023-04-19T07:47:36;102836.81;;;12.50;100.00
12247;BME280;6186;52.022;4.692;2023-04-19T07:50:01;102838.56;;;12.60;100.00
12247;BME280;6186;52.022;4.692;2023-04-19T07:52:26;102847.34;;;12.68;100.00
12247;BME280;6186;52.022;4.692;2023-04-19T07:54:51;102842.03;;;12.80;100.00
12247;BME280;6186;52.022;4.692;2023-04-19T07:57:16;102834.97;;;12.94;100.00
12247;BME280;6186;52.022;4.692;2023-04-19T07:59:42;102841.97;;;13.10;100.00
12247;BME280;6186;52.022;4.692;2023-04-19T08:02:07;102835.75;;;13.27;100.00
12247;BME280;6186;52.022;4.692;2023-04-19T08:04:32;102831.22;;;13.48;100.00
12247;BME280;6186;52.022;4.692;2023-04-19T08:06:57;102834.63;;;13.67;100.00
12247;BME280;6186;52.022;4.692;2023-04-19T08:09:23;102826.63;;;13.83;100.00
12247;BME280;6186;52.022;4.692;2023-04-19T08:11:48;102829.13;;;14.00;100.00
12247;BME280;6186;52.022;4.692;2023-04-19T08:14:13;102824.63;;;14.08;100.00
12247;BME280;6186;52.022;4.692;2023-04-19T08:16:38;102829.78;;;14.26;100.00
12247;BME280;6186;52.022;4.692;2023-04-19T08:19:03;102832.34;;;14.41;100.00
12247;BME280;6186;52.022;4.692;2023-04-19T08:21:29;102827.81;;;14.52;100.00
12247;BME280;6186;52.022;4.692;2023-04-19T08:23:54;102828.63;;;14.60;100.00
12247;BME280;6186;52.022;4.692;2023-04-19T08:26:19;102817.97;;;14.66;100.00
12247;BME280;6186;52.022;4.692;2023-04-19T08:28:44;102826.69;;;14.74;100.00
12247;BME280;6186;52.022;4.692;2023-04-19T08:31:09;102823.91;;;14.86;100.00
12247;BME280;6186;52.022;4.692;2023-04-19T08:33:35;102801.72;;;14.96;100.00
12247;BME280;6186;52.022;4.692;2023-04-19T08:36:00;102823.47;;;15.23;100.00
12247;BME280;6186;52.022;4.692;2023-04-19T08:38:25;102826.09;;;15.26;100.00
12247;BME280;6186;52.022;4.692;2023-04-19T08:40:52;102833.06;;;15.34;100.00
12247;BME280;6186;52.022;4.692;2023-04-19T08:43:18;102831.16;;;15.47;100.00
12247;BME280;6186;52.022;4.692;2023-04-19T08:45:47;102821.22;;;15.61;100.00
12247;BME280;6186;52.022;4.692;2023-04-19T08:48:15;102819.25;;;15.73;100.00
12247;BME280;6186;52.022;4.692;2023-04-19T08:50:41;102820.69;;;15.94;100.00
12247;BME280;6186;52.022;4.692;2023-04-19T08:53:09;102826.63;;;16.11;100.00
12247;BME280;6186;52.022;4.692;2023-04-19T08:55:35;102825.66;;;16.17;100.00
12247;BME280;6186;52.022;4.692;2023-04-19T08:58:03;102819.34;;;16.22;99.96
12247;BME280;6186;52.022;4.692;2023-04-19T09:00:28;102817.38;;;16.35;99.90
12247;BME280;6186;52.022;4.692;2023-04-19T09:02:53;102811.00;;;16.43;100.00
12247;BME280;6186;52.022;4.692;2023-04-19T09:05:19;102821.97;;;16.75;100.00
12247;BME280;6186;52.022;4.692;2023-04-19T09:07:45;102816.00;;;17.09;100.00
12247;BME280;6186;52.022;4.692;2023-04-19T09:10:18;102800.59;;;17.23;100.00
12247;BME280;6186;52.022;4.692;2023-04-19T09:13:01;102817.81;;;17.46;100.00
12247;BME280;6186;52.022;4.692;2023-04-19T09:15:37;102819.03;;;17.73;100.00
12247;BME280;6186;52.022;4.692;2023-04-19T09:18:05;102814.19;;;17.90;100.00
12247;BME280;6186;52.022;4.692;2023-04-19T09:20:38;102813.09;;;17.97;100.00
12247;BME280;6186;52.022;4.692;2023-04-19T09:23:05;102808.13;;;18.17;100.00
12247;BME280;6186;52.022;4.692;2023-04-19T09:25:30;102804.88;;;18.40;100.00
12247;BME280;6186;52.022;4.692;2023-04-19T09:28:08;102796.50;;;18.56;100.00
12247;BME280;6186;52.022;4.692;2023-04-19T09:30:33;102788.38;;;18.92;100.00
12247;BME280;6186;52.022;4.692;2023-04-19T09:32:59;102797.00;;;19.32;100.00
12247;BME280;6186;52.022;4.692;2023-04-19T09:35:38;102796.56;;;19.73;100.00
12247;BME280;6186;52.022;4.692;2023-04-19T09:38:04;102786.78;;;20.00;100.00
12247;BME280;6186;52.022;4.692;2023-04-19T09:40:29;102788.19;;;20.11;100.00
12247;BME280;6186;52.022;4.692;2023-04-19T09:42:54;102787.63;;;20.28;100.00
12247;BME280;6186;52.022;4.692;2023-04-19T09:45:20;102775.44;;;20.44;100.00
12247;BME280;6186;52.022;4.692;2023-04-19T09:47:59;102795.66;;;20.52;100.00
12247;BME280;6186;52.022;4.692;2023-04-19T09:50:25;102789.16;;;20.59;99.44
12247;BME280;6186;52.022;4.692;2023-04-19T09:52:51;102783.16;;;20.78;97.53
12247;BME280;6186;52.022;4.692;2023-04-19T09:55:18;102780.97;;;20.89;98.41
12247;BME280;6186;52.022;4.692;2023-04-19T09:57:43;102773.78;;;21.14;99.06
12247;BME280;6186;52.022;4.692;2023-04-19T10:00:09;102785.72;;;21.28;99.07
12247;BME280;6186;52.022;4.692;2023-04-19T10:02:35;102784.06;;;21.47;99.27
12247;BME280;6186;52.022;4.692;2023-04-19T10:05:02;102783.75;;;21.55;96.81
12247;BME280;6186;52.022;4.692;2023-04-19T10:07:29;102788.81;;;21.63;96.73
12247;BME280;6186;52.022;4.692;2023-04-19T10:09:57;102781.72;;;21.83;97.27
12247;BME280;6186;52.022;4.692;2023-04-19T10:12:24;102785.88;;;22.12;98.96
12247;BME280;6186;52.022;4.692;2023-04-19T10:14:49;102779.53;;;22.34;98.36
12247;BME280;6186;52.022;4.692;2023-04-19T10:17:15;102773.50;;;22.50;97.37
12247;BME280;6186;52.022;4.692;2023-04-19T10:19:42;102762.66;;;22.73;97.03
12247;BME280;6186;52.022;4.692;2023-04-19T10:22:09;102762.69;;;22.71;92.70
12247;BME280;6186;52.022;4.692;2023-04-19T10:24:34;102765.91;;;22.79;92.65
12247;BME280;6186;52.022;4.692;2023-04-19T10:27:10;102770.13;;;22.85;90.03
12247;BME280;6186;52.022;4.692;2023-04-19T10:32:20;102760.59;;;23.16;89.92
12247;BME280;6186;52.022;4.692;2023-04-19T10:34:46;102764.31;;;23.32;87.67
12247;BME280;6186;52.022;4.692;2023-04-19T10:37:14;102764.75;;;23.42;87.26
12247;BME280;6186;52.022;4.692;2023-04-19T10:39:41;102755.72;;;23.43;85.13
12247;BME280;6186;52.022;4.692;2023-04-19T10:42:07;102758.00;;;23.52;86.56
12247;BME280;6186;52.022;4.692;2023-04-19T10:44:32;102754.72;;;23.81;88.91
12247;BME280;6186;52.022;4.692;2023-04-19T10:46:58;102745.78;;;23.98;88.04
12247;BME280;6186;52.022;4.692;2023-04-19T10:49:26;102752.53;;;23.89;85.10
12247;BME280;6186;52.022;4.692;2023-04-19T10:51:51;102756.47;;;23.82;84.08
12247;BME280;6186;52.022;4.692;2023-04-19T10:54:31;102755.53;;;24.00;85.05
12247;BME280;6186;52.022;4.692;2023-04-19T10:57:08;102753.47;;;24.24;84.39
12247;BME280;6186;52.022;4.692;2023-04-19T10:59:35;102760.25;;;24.31;81.42
12247;BME280;6186;52.022;4.692;2023-04-19T11:07:14;102744.81;;;24.35;79.96
12247;BME280;6186;52.022;4.692;2023-04-19T11:09:44;102745.38;;;24.41;78.32
12247;BME280;6186;52.022;4.692;2023-04-19T11:12:12;102739.69;;;24.63;79.02
12247;BME280;6186;52.022;4.692;2023-04-19T11:17:28;102737.28;;;24.91;76.55
12247;BME280;6186;52.022;4.692;2023-04-19T11:20:07;102736.59;;;25.03;77.00
12247;BME280;6186;52.022;4.692;2023-04-19T11:22:38;102720.97;;;25.09;74.28
12247;BME280;6186;52.022;4.692;2023-04-19T11:25:17;102717.75;;;25.03;72.23
12247;BME280;6186;52.022;4.692;2023-04-19T11:27:44;102728.19;;;25.09;72.28
12247;BME280;6186;52.022;4.692;2023-04-19T11:30:15;102724.34;;;25.29;72.94
12247;BME280;6186;52.022;4.692;2023-04-19T11:32:44;102721.69;;;25.44;71.48
12247;BME280;6186;52.022;4.692;2023-04-19T11:35:10;102729.09;;;25.56;70.98
12247;BME280;6186;52.022;4.692;2023-04-19T11:37:36;102724.03;;;25.50;68.09
12247;BME280;6186;52.022;4.692;2023-04-19T11:40:03;102721.69;;;25.60;67.81
12247;BME280;6186;52.022;4.692;2023-04-19T11:42:29;102716.53;;;25.71;67.95
12247;BME280;6186;52.022;4.692;2023-04-19T11:44:54;102714.69;;;25.71;65.77
12247;BME280;6186;52.022;4.692;2023-04-19T11:47:20;102700.78;;;25.63;63.06
12247;BME280;6186;52.022;4.692;2023-04-19T11:49:45;102713.59;;;25.44;61.79
12247;BME280;6186;52.022;4.692;2023-04-19T11:52:10;102712.19;;;25.37;60.63
12247;BME280;6186;52.022;4.692;2023-04-19T11:54:36;102714.06;;;25.04;58.35
12247;BME280;6186;52.022;4.692;2023-04-19T11:57:06;102706.97;;;24.70;56.94
12247;BME280;6186;52.022;4.692;2023-04-19T11:59:33;102696.63;;;24.46;55.62
12247;BME280;6186;52.022;4.692;2023-04-19T12:02:06;102687.47;;;24.33;56.09
12247;BME280;6186;52.022;4.692;2023-04-19T12:04:32;102692.25;;;24.27;55.73
12247;BME280;6186;52.022;4.692;2023-04-19T12:06:58;102688.56;;;23.94;54.00
12247;BME280;6186;52.022;4.692;2023-04-19T12:09:23;102687.78;;;23.75;53.99
12247;BME280;6186;52.022;4.692;2023-04-19T12:11:49;102685.44;;;23.51;52.87
12247;BME280;6186;52.022;4.692;2023-04-19T12:14:15;102675.44;;;23.35;52.73
12247;BME280;6186;52.022;4.692;2023-04-19T12:16:41;102674.59;;;23.35;53.17
12247;BME280;6186;52.022;4.692;2023-04-19T12:19:11;102669.94;;;23.20;51.65
12247;BME280;6186;52.022;4.692;2023-04-19T12:21:36;102656.47;;;23.03;52.03
12247;BME280;6186;52.022;4.692;2023-04-19T12:24:01;102674.19;;;23.07;51.85
12247;BME280;6186;52.022;4.692;2023-04-19T12:26:28;102670.75;;;23.03;52.02
12247;BME280;6186;52.022;4.692;2023-04-19T12:28:54;102661.25;;;22.96;51.30
12247;BME280;6186;52.022;4.692;2023-04-19T12:31:20;102666.47;;;22.81;51.20
12247;BME280;6186;52.022;4.692;2023-04-19T12:33:45;102669.38;;;22.76;51.01
12247;BME280;6186;52.022;4.692;2023-04-19T12:36:11;102678.63;;;22.69;50.50
12247;BME280;6186;52.022;4.692;2023-04-19T12:38:36;102667.63;;;22.36;49.33
12247;BME280;6186;52.022;4.692;2023-04-19T12:41:01;102676.09;;;22.07;48.79
12247;BME280;6186;52.022;4.692;2023-04-19T12:43:26;102672.59;;;22.05;49.44
12247;BME280;6186;52.022;4.692;2023-04-19T12:45:51;102669.66;;;22.11;49.33
12247;BME280;6186;52.022;4.692;2023-04-19T12:48:17;102657.44;;;22.04;48.91
12247;BME280;6186;52.022;4.692;2023-04-19T12:50:42;102654.41;;;21.92;48.79
12247;BME280;6186;52.022;4.692;2023-04-19T12:53:07;102660.09;;;21.84;49.02
12247;BME280;6186;52.022;4.692;2023-04-19T12:55:32;102658.59;;;21.77;48.32
12247;BME280;6186;52.022;4.692;2023-04-19T12:57:58;102647.88;;;21.57;47.15
12247;BME280;6186;52.022;4.692;2023-04-19T13:00:23;102649.44;;;21.41;46.74
12247;BME280;6186;52.022;4.692;2023-04-19T13:02:48;102639.09;;;21.32;47.02
12247;BME280;6186;52.022;4.692;2023-04-19T13:05:13;102629.06;;;21.37;46.98